sensor_id;sensor_type;location;lat;lon;timestamp;P1;durP1;ratioP1;P2;durP2;ratioP2
5754;SDS011;2902;42.130;24.732;2023-08-31T00:01:32;4.03;;;3.63;;
5754;SDS011;2902;42.130;24.732;2023-08-31T00:03:59;4.07;;;3.77;;
5754;SDS011;2902;42.130;24.732;2023-08-31T00:06:25;4.07;;;3.83;;
5754;SDS011;2902;42.130;24.732;2023-08-31T00:08:52;4.40;;;3.70;;
5754;SDS011;2902;42.130;24.732;2023-08-31T00:11:19;3.43;;;3.23;;
5754;SDS011;2902;42.130;24.732;2023-08-31T00:13:46;4.10;;;3.53;;
5754;SDS011;2902;42.130;24.732;2023-08-31T00:16:14;4.13;;;3.87;;
5754;SDS011;2902;42.130;24.732;2023-08-31T00:18:40;4.13;;;3.83;;
5754;SDS011;2902;42.130;24.732;2023-08-31T00:21:07;4.97;;;3.87;;
5754;SDS011;2902;42.130;24.732;2023-08-31T00:23:34;4.20;;;3.80;;
5754;SDS011;2902;42.130;24.732;2023-08-31T00:26:02;6.67;;;4.20;;
5754;SDS011;2902;42.130;24.732;2023-08-31T00:28:28;4.23;;;3.73;;
5754;SDS011;2902;42.130;24.732;2023-08-31T00:30:55;4.63;;;3.60;;
5754;SDS011;2902;42.130;24.732;2023-08-31T00:33:24;4.00;;;3.70;;
5754;SDS011;2902;42.130;24.732;2023-08-31T00:35:52;4.63;;;4.23;;
5754;SDS011;2902;42.130;24.732;2023-08-31T00:38:21;4.03;;;3.80;;
5754;SDS011;2902;42.130;24.732;2023-08-31T00:40:48;4.37;;;4.00;;
5754;SDS011;2902;42.130;24.732;2023-08-31T00:43:15;4.20;;;3.90;;
5754;SDS011;2902;42.130;24.732;2023-08-31T00:45:43;5.03;;;4.20;;
5754;SDS011;2902;42.130;24.732;2023-08-31T00:48:11;4.50;;;3.83;;
5754;SDS011;2902;42.130;24.732;2023-08-31T00:50:39;3.97;;;3.53;;
5754;SDS011;2902;42.130;24.732;2023-08-31T00:53:06;6.13;;;3.73;;
5754;SDS011;2902;42.130;24.732;2023-08-31T00:55:33;6.40;;;3.77;;
5754;SDS011;2902;42.130;24.732;2023-08-31T00:58:00;4.47;;;4.07;;
5754;SDS011;2902;42.130;24.732;2023-08-31T01:00:30;5.50;;;4.27;;
5754;SDS011;2902;42.130;24.732;2023-08-31T01:03:05;5.83;;;3.97;;
5754;SDS011;2902;42.130;24.732;2023-08-31T01:05:42;3.70;;;3.40;;
5754;SDS011;2902;42.130;24.732;2023-08-31T01:08:19;3.80;;;3.50;;
5754;SDS011;2902;42.130;24.732;2023-08-31T01:10:55;3.83;;;3.53;;
5754;SDS011;2902;42.130;24.732;2023-08-31T01:13:29;4.07;;;3.77;;
5754;SDS011;2902;42.130;24.732;2023-08-31T01:15:59;3.87;;;3.57;;
5754;SDS011;2902;42.130;24.732;2023-08-31T01:18:29;4.23;;;3.63;;
5754;SDS011;2902;42.130;24.732;2023-08-31T01:21:02;8.57;;;3.47;;
5754;SDS011;2902;42.130;24.732;2023-08-31T01:23:52;5.23;;;3.20;;
5754;SDS011;2902;42.130;24.732;2023-08-31T01:26:19;3.53;;;2.70;;
5754;SDS011;2902;42.130;24.732;2023-08-31T01:28:47;4.67;;;3.47;;
5754;SDS011;2902;42.130;24.732;2023-08-31T01:31:14;3.80;;;3.10;;
5754;SDS011;2902;42.130;24.732;2023-08-31T01:33:42;3.47;;;3.03;;
5754;SDS011;2902;42.130;24.732;2023-08-31T01:36:11;3.40;;;3.10;;
5754;SDS011;2902;42.130;24.732;2023-08-31T01:38:44;3.90;;;2.90;;
5754;SDS011;2902;42.130;24.732;2023-08-31T01:41:16;3.37;;;3.13;;
5754;SDS011;2902;42.130;24.732;2023-08-31T01:43:45;2.87;;;2.67;;
5754;SDS011;2902;42.130;24.732;2023-08-31T01:46:14;3.50;;;3.20;;
5754;SDS011;2902;42.130;24.732;2023-08-31T01:48:42;3.43;;;2.70;;
5754;SDS011;2902;42.130;24.732;2023-08-31T01:51:09;3.97;;;3.13;;
5754;SDS011;2902;42.130;24.732;2023-08-31T01:53:36;3.37;;;2.97;;
5754;SDS011;2902;42.130;24.732;2023-08-31T01:56:03;4.03;;;3.30;;
5754;SDS011;2902;42.130;24.732;2023-08-31T01:58:32;6.60;;;2.80;;
5754;SDS011;2902;42.130;24.732;2023-08-31T02:00:59;3.20;;;2.87;;
5754;SDS011;2902;42.130;24.732;2023-08-31T02:03:25;3.80;;;3.30;;
5754;SDS011;2902;42.130;24.732;2023-08-31T02:05:52;5.97;;;2.77;;
5754;SDS011;2902;42.130;24.732;2023-08-31T02:08:19;4.37;;;2.60;;
5754;SDS011;2902;42.130;24.732;2023-08-31T02:10:46;4.50;;;3.20;;
5754;SDS011;2902;42.130;24.732;2023-08-31T02:13:13;2.77;;;2.57;;
5754;SDS011;2902;42.130;24.732;2023-08-31T02:15:42;3.07;;;2.77;;
5754;SDS011;2902;42.130;24.732;2023-08-31T02:18:08;2.80;;;2.60;;
5754;SDS011;2902;42.130;24.732;2023-08-31T02:20:35;2.80;;;2.60;;
5754;SDS011;2902;42.130;24.732;2023-08-31T02:23:02;4.30;;;3.07;;
5754;SDS011;2902;42.130;24.732;2023-08-31T02:25:29;9.10;;;3.43;;
5754;SDS011;2902;42.130;24.732;2023-08-31T02:27:55;3.83;;;3.10;;
5754;SDS011;2902;42.130;24.732;2023-08-31T02:30:22;5.23;;;3.00;;
5754;SDS011;2902;42.130;24.732;2023-08-31T02:32:50;4.20;;;2.83;;
5754;SDS011;2902;42.130;24.732;2023-08-31T02:35:17;4.10;;;2.90;;
5754;SDS011;2902;42.130;24.732;2023-08-31T02:37:43;3.70;;;2.70;;
5754;SDS011;2902;42.130;24.732;2023-08-31T02:40:10;3.37;;;3.07;;
5754;SDS011;2902;42.130;24.732;2023-08-31T02:42:38;3.33;;;3.13;;
5754;SDS011;2902;42.130;24.732;2023-08-31T02:45:05;3.43;;;3.13;;
5754;SDS011;2902;42.130;24.732;2023-08-31T02:47:32;3.23;;;2.93;;
5754;SDS011;2902;42.130;24.732;2023-08-31T02:50:00;6.53;;;3.60;;
5754;SDS011;2902;42.130;24.732;2023-08-31T02:52:27;6.97;;;3.37;;
5754;SDS011;2902;42.130;24.732;2023-08-31T02:54:53;5.93;;;3.00;;
5754;SDS011;2902;42.130;24.732;2023-08-31T02:57:20;3.10;;;2.80;;
5754;SDS011;2902;42.130;24.732;2023-08-31T02:59:49;3.37;;;3.00;;
5754;SDS011;2902;42.130;24.732;2023-08-31T03:02:16;3.67;;;3.37;;
5754;SDS011;2902;42.130;24.732;2023-08-31T03:04:42;3.47;;;3.27;;
5754;SDS011;2902;42.130;24.732;2023-08-31T03:07:10;3.83;;;3.10;;
5754;SDS011;2902;42.130;24.732;2023-08-31T03:09:39;5.87;;;3.40;;
5754;SDS011;2902;42.130;24.732;2023-08-31T03:12:06;5.03;;;3.07;;
5754;SDS011;2902;42.130;24.732;2023-08-31T03:14:33;3.30;;;3.00;;
5754;SDS011;2902;42.130;24.732;2023-08-31T03:16:59;6.90;;;3.80;;
5754;SDS011;2902;42.130;24.732;2023-08-31T03:19:26;3.60;;;2.90;;
5754;SDS011;2902;42.130;24.732;2023-08-31T03:21:52;5.37;;;3.37;;
5754;SDS011;2902;42.130;24.732;2023-08-31T03:24:20;7.20;;;3.33;;
5754;SDS011;2902;42.130;24.732;2023-08-31T03:26:48;15.80;;;3.57;;
5754;SDS011;2902;42.130;24.732;2023-08-31T03:29:15;5.20;;;3.00;;
5754;SDS011;2902;42.130;24.732;2023-08-31T03:31:41;5.07;;;3.23;;
5754;SDS011;2902;42.130;24.732;2023-08-31T03:34:08;4.50;;;3.80;;
5754;SDS011;2902;42.130;24.732;2023-08-31T03:36:35;3.37;;;3.17;;
5754;SDS011;2902;42.130;24.732;2023-08-31T03:39:02;27.73;;;4.37;;
5754;SDS011;2902;42.130;24.732;2023-08-31T03:41:31;4.13;;;3.20;;
5754;SDS011;2902;42.130;24.732;2023-08-31T03:43:57;7.53;;;3.80;;
5754;SDS011;2902;42.130;24.732;2023-08-31T03:46:24;3.50;;;3.13;;
5754;SDS011;2902;42.130;24.732;2023-08-31T03:48:51;6.87;;;3.30;;
5754;SDS011;2902;42.130;24.732;2023-08-31T03:51:18;4.17;;;3.57;;
5754;SDS011;2902;42.130;24.732;2023-08-31T03:53:45;4.87;;;3.33;;
5754;SDS011;2902;42.130;24.732;2023-08-31T03:56:11;4.20;;;3.27;;
5754;SDS011;2902;42.130;24.732;2023-08-31T03:58:39;8.57;;;3.73;;
5754;SDS011;2902;42.130;24.732;2023-08-31T04:01:06;5.37;;;3.63;;
5754;SDS011;2902;42.130;24.732;2023-08-31T04:03:35;4.50;;;3.50;;
5754;SDS011;2902;42.130;24.732;2023-08-31T04:06:01;4.07;;;3.63;;
5754;SDS011;2902;42.130;24.732;2023-08-31T04:08:30;8.33;;;3.80;;
5754;SDS011;2902;42.130;24.732;2023-08-31T04:10:56;4.70;;;3.70;;
5754;SDS011;2902;42.130;24.732;2023-08-31T04:13:23;11.77;;;4.07;;
5754;SDS011;2902;42.130;24.732;2023-08-31T04:15:51;10.70;;;3.53;;
5754;SDS011;2902;42.130;24.732;2023-08-31T04:18:18;5.70;;;3.27;;
5754;SDS011;2902;42.130;24.732;2023-08-31T04:20:49;13.70;;;4.20;;
5754;SDS011;2902;42.130;24.732;2023-08-31T04:23:17;4.33;;;3.23;;
5754;SDS011;2902;42.130;24.732;2023-08-31T04:25:44;6.23;;;3.63;;
5754;SDS011;2902;42.130;24.732;2023-08-31T04:28:10;6.57;;;3.73;;
5754;SDS011;2902;42.130;24.732;2023-08-31T04:30:37;11.40;;;3.90;;
5754;SDS011;2902;42.130;24.732;2023-08-31T04:33:06;7.10;;;3.87;;
5754;SDS011;2902;42.130;24.732;2023-08-31T04:35:33;8.93;;;4.70;;
5754;SDS011;2902;42.130;24.732;2023-08-31T04:38:00;9.43;;;3.73;;
5754;SDS011;2902;42.130;24.732;2023-08-31T04:40:27;4.17;;;3.80;;
5754;SDS011;2902;42.130;24.732;2023-08-31T04:42:54;4.43;;;3.67;;
5754;SDS011;2902;42.130;24.732;2023-08-31T04:45:20;6.90;;;3.80;;
5754;SDS011;2902;42.130;24.732;2023-08-31T04:47:47;9.83;;;4.23;;
5754;SDS011;2902;42.130;24.732;2023-08-31T04:50:16;4.80;;;3.90;;
5754;SDS011;2902;42.130;24.732;2023-08-31T04:52:42;14.33;;;4.27;;
5754;SDS011;2902;42.130;24.732;2023-08-31T04:55:09;4.03;;;3.57;;
5754;SDS011;2902;42.130;24.732;2023-08-31T04:57:38;9.07;;;4.00;;
5754;SDS011;2902;42.130;24.732;2023-08-31T05:00:05;5.93;;;4.07;;
5754;SDS011;2902;42.130;24.732;2023-08-31T05:02:34;3.97;;;3.57;;
5754;SDS011;2902;42.130;24.732;2023-08-31T05:05:00;36.70;;;4.77;;
5754;SDS011;2902;42.130;24.732;2023-08-31T05:07:29;5.20;;;3.73;;
5754;SDS011;2902;42.130;24.732;2023-08-31T05:09:55;5.20;;;3.63;;
5754;SDS011;2902;42.130;24.732;2023-08-31T05:12:22;6.20;;;3.20;;
5754;SDS011;2902;42.130;24.732;2023-08-31T05:14:49;14.60;;;3.53;;
5754;SDS011;2902;42.130;24.732;2023-08-31T05:17:15;4.77;;;3.37;;
5754;SDS011;2902;42.130;24.732;2023-08-31T05:19:42;19.60;;;3.83;;
5754;SDS011;2902;42.130;24.732;2023-08-31T05:22:09;5.60;;;3.33;;
5754;SDS011;2902;42.130;24.732;2023-08-31T05:24:37;4.63;;;3.40;;
5754;SDS011;2902;42.130;24.732;2023-08-31T05:27:04;7.07;;;3.57;;
5754;SDS011;2902;42.130;24.732;2023-08-31T05:29:31;4.73;;;2.90;;
5754;SDS011;2902;42.130;24.732;2023-08-31T05:31:57;5.47;;;3.17;;
5754;SDS011;2902;42.130;24.732;2023-08-31T05:34:24;5.57;;;3.13;;
5754;SDS011;2902;42.130;24.732;2023-08-31T05:36:51;5.00;;;2.80;;
5754;SDS011;2902;42.130;24.732;2023-08-31T05:39:18;9.07;;;3.90;;
5754;SDS011;2902;42.130;24.732;2023-08-31T05:41:46;4.17;;;3.47;;
5754;SDS011;2902;42.130;24.732;2023-08-31T05:44:12;25.47;;;5.97;;
5754;SDS011;2902;42.130;24.732;2023-08-31T05:46:39;6.17;;;3.00;;
5754;SDS011;2902;42.130;24.732;2023-08-31T05:49:06;5.40;;;3.20;;
5754;SDS011;2902;42.130;24.732;2023-08-31T05:51:33;9.20;;;3.40;;
5754;SDS011;2902;42.130;24.732;2023-08-31T05:53:59;17.63;;;3.67;;
5754;SDS011;2902;42.130;24.732;2023-08-31T05:56:26;3.10;;;2.90;;
5754;SDS011;2902;42.130;24.732;2023-08-31T05:58:54;12.10;;;4.20;;
5754;SDS011;2902;42.130;24.732;2023-08-31T06:01:21;5.43;;;3.40;;
5754;SDS011;2902;42.130;24.732;2023-08-31T06:03:48;7.17;;;2.90;;
5754;SDS011;2902;42.130;24.732;2023-08-31T06:06:14;7.23;;;2.70;;
5754;SDS011;2902;42.130;24.732;2023-08-31T06:08:41;3.77;;;2.83;;
5754;SDS011;2902;42.130;24.732;2023-08-31T06:11:08;11.37;;;3.60;;
5754;SDS011;2902;42.130;24.732;2023-08-31T06:13:35;11.40;;;3.20;;
5754;SDS011;2902;42.130;24.732;2023-08-31T06:16:06;5.37;;;2.87;;
5754;SDS011;2902;42.130;24.732;2023-08-31T06:18:32;6.97;;;3.00;;
5754;SDS011;2902;42.130;24.732;2023-08-31T06:20:59;22.93;;;4.27;;
5754;SDS011;2902;42.130;24.732;2023-08-31T06:23:26;10.57;;;2.93;;
5754;SDS011;2902;42.130;24.732;2023-08-31T06:25:52;17.50;;;3.17;;
5754;SDS011;2902;42.130;24.732;2023-08-31T06:28:19;21.70;;;3.47;;
5754;SDS011;2902;42.130;24.732;2023-08-31T06:30:46;9.33;;;2.43;;
5754;SDS011;2902;42.130;24.732;2023-08-31T06:33:14;14.53;;;3.43;;
5754;SDS011;2902;42.130;24.732;2023-08-31T06:35:42;8.63;;;3.07;;
5754;SDS011;2902;42.130;24.732;2023-08-31T06:38:11;4.97;;;2.47;;
5754;SDS011;2902;42.130;24.732;2023-08-31T06:40:38;15.73;;;3.23;;
5754;SDS011;2902;42.130;24.732;2023-08-31T06:43:04;23.40;;;3.50;;
5754;SDS011;2902;42.130;24.732;2023-08-31T06:45:31;5.77;;;2.80;;
5754;SDS011;2902;42.130;24.732;2023-08-31T06:47:59;4.33;;;3.00;;
5754;SDS011;2902;42.130;24.732;2023-08-31T06:50:27;3.00;;;2.13;;
5754;SDS011;2902;42.130;24.732;2023-08-31T06:52:54;7.13;;;2.73;;
5754;SDS011;2902;42.130;24.732;2023-08-31T06:55:20;3.73;;;2.43;;
5754;SDS011;2902;42.130;24.732;2023-08-31T06:57:48;3.83;;;2.33;;
5754;SDS011;2902;42.130;24.732;2023-08-31T07:00:14;5.17;;;2.37;;
5754;SDS011;2902;42.130;24.732;2023-08-31T07:02:41;2.67;;;2.43;;
5754;SDS011;2902;42.130;24.732;2023-08-31T07:05:10;10.93;;;3.20;;
5754;SDS011;2902;42.130;24.732;2023-08-31T07:07:38;3.17;;;2.20;;
5754;SDS011;2902;42.130;24.732;2023-08-31T07:10:05;7.37;;;2.67;;
5754;SDS011;2902;42.130;24.732;2023-08-31T07:12:36;2.77;;;2.00;;
5754;SDS011;2902;42.130;24.732;2023-08-31T07:15:09;3.63;;;2.30;;
5754;SDS011;2902;42.130;24.732;2023-08-31T07:17:37;4.73;;;2.40;;
5754;SDS011;2902;42.130;24.732;2023-08-31T07:26:43;4.17;;;2.57;;
5754;SDS011;2902;42.130;24.732;2023-08-31T07:32:14;3.70;;;2.37;;
5754;SDS011;2902;42.130;24.732;2023-08-31T07:34:40;7.93;;;2.53;;
5754;SDS011;2902;42.130;24.732;2023-08-31T07:37:07;3.97;;;2.50;;
5754;SDS011;2902;42.130;24.732;2023-08-31T07:39:35;4.67;;;2.60;;
5754;SDS011;2902;42.130;24.732;2023-08-31T07:42:02;6.50;;;2.70;;
5754;SDS011;2902;42.130;24.732;2023-08-31T07:44:29;4.00;;;2.13;;
5754;SDS011;2902;42.130;24.732;2023-08-31T07:46:56;3.33;;;2.10;;
5754;SDS011;2902;42.130;24.732;2023-08-31T07:49:22;4.95;;;2.28;;
5754;SDS011;2902;42.130;24.732;2023-08-31T07:51:49;4.47;;;2.23;;
5754;SDS011;2902;42.130;24.732;2023-08-31T07:54:19;4.70;;;2.05;;
5754;SDS011;2902;42.130;24.732;2023-08-31T07:56:47;4.40;;;1.85;;
5754;SDS011;2902;42.130;24.732;2023-08-31T07:59:14;4.07;;;2.35;;
5754;SDS011;2902;42.130;24.732;2023-08-31T08:01:42;2.15;;;1.95;;
5754;SDS011;2902;42.130;24.732;2023-08-31T08:04:09;2.65;;;2.40;;
5754;SDS011;2902;42.130;24.732;2023-08-31T08:06:36;3.00;;;2.33;;
5754;SDS011;2902;42.130;24.732;2023-08-31T08:09:03;6.38;;;2.33;;
5754;SDS011;2902;42.130;24.732;2023-08-31T08:11:30;8.35;;;2.30;;
5754;SDS011;2902;42.130;24.732;2023-08-31T08:13:58;8.70;;;2.20;;
5754;SDS011;2902;42.130;24.732;2023-08-31T08:16:25;3.90;;;2.08;;
5754;SDS011;2902;42.130;24.732;2023-08-31T08:18:52;3.50;;;2.38;;
5754;SDS011;2902;42.130;24.732;2023-08-31T08:21:18;5.80;;;1.92;;
5754;SDS011;2902;42.130;24.732;2023-08-31T08:23:45;4.53;;;2.38;;
5754;SDS011;2902;42.130;24.732;2023-08-31T08:26:12;3.08;;;1.80;;
5754;SDS011;2902;42.130;24.732;2023-08-31T08:28:38;4.25;;;2.40;;
5754;SDS011;2902;42.130;24.732;2023-08-31T08:31:06;5.13;;;2.53;;
5754;SDS011;2902;42.130;24.732;2023-08-31T08:33:33;5.95;;;1.90;;
5754;SDS011;2902;42.130;24.732;2023-08-31T08:36:00;5.22;;;2.10;;
5754;SDS011;2902;42.130;24.732;2023-08-31T08:38:27;3.78;;;1.80;;
5754;SDS011;2902;42.130;24.732;2023-08-31T08:40:53;3.33;;;2.10;;
5754;SDS011;2902;42.130;24.732;2023-08-31T08:43:21;5.95;;;2.08;;
5754;SDS011;2902;42.130;24.732;2023-08-31T08:45:51;2.65;;;1.70;;
5754;SDS011;2902;42.130;24.732;2023-08-31T08:48:21;4.95;;;1.70;;
5754;SDS011;2902;42.130;24.732;2023-08-31T08:50:48;2.38;;;2.10;;
5754;SDS011;2902;42.130;24.732;2023-08-31T08:53:15;3.33;;;1.60;;
5754;SDS011;2902;42.130;24.732;2023-08-31T08:55:42;4.80;;;2.05;;
5754;SDS011;2902;42.130;24.732;2023-08-31T08:58:09;4.57;;;1.95;;
5754;SDS011;2902;42.130;24.732;2023-08-31T09:00:36;9.82;;;2.10;;
5754;SDS011;2902;42.130;24.732;2023-08-31T09:03:03;2.17;;;1.92;;
5754;SDS011;2902;42.130;24.732;2023-08-31T09:05:32;13.13;;;2.85;;
5754;SDS011;2902;42.130;24.732;2023-08-31T09:08:02;4.43;;;1.75;;
5754;SDS011;2902;42.130;24.732;2023-08-31T09:10:35;3.38;;;1.95;;
5754;SDS011;2902;42.130;24.732;2023-08-31T09:13:04;5.60;;;2.28;;
5754;SDS011;2902;42.130;24.732;2023-08-31T09:15:36;7.82;;;2.03;;
5754;SDS011;2902;42.130;24.732;2023-08-31T09:18:06;2.40;;;1.55;;
5754;SDS011;2902;42.130;24.732;2023-08-31T09:20:41;1.90;;;1.80;;
5754;SDS011;2902;42.130;24.732;2023-08-31T09:23:09;9.20;;;2.47;;
5754;SDS011;2902;42.130;24.732;2023-08-31T09:25:38;3.55;;;1.75;;
5754;SDS011;2902;42.130;24.732;2023-08-31T09:28:08;6.88;;;2.35;;
5754;SDS011;2902;42.130;24.732;2023-08-31T09:30:35;5.85;;;1.88;;
5754;SDS011;2902;42.130;24.732;2023-08-31T09:33:03;1.90;;;1.73;;
5754;SDS011;2902;42.130;24.732;2023-08-31T09:35:30;3.22;;;2.35;;
5754;SDS011;2902;42.130;24.732;2023-08-31T09:37:58;3.55;;;1.80;;
5754;SDS011;2902;42.130;24.732;2023-08-31T09:40:27;4.90;;;2.00;;
5754;SDS011;2902;42.130;24.732;2023-08-31T09:42:54;2.13;;;1.95;;
5754;SDS011;2902;42.130;24.732;2023-08-31T09:45:28;6.07;;;2.22;;
5754;SDS011;2902;42.130;24.732;2023-08-31T09:47:56;2.42;;;1.83;;
5754;SDS011;2902;42.130;24.732;2023-08-31T09:50:25;3.22;;;1.98;;
5754;SDS011;2902;42.130;24.732;2023-08-31T09:52:53;2.95;;;2.00;;
5754;SDS011;2902;42.130;24.732;2023-08-31T09:55:23;2.55;;;2.35;;
5754;SDS011;2902;42.130;24.732;2023-08-31T09:57:53;6.25;;;2.50;;
5754;SDS011;2902;42.130;24.732;2023-08-31T10:00:24;2.53;;;1.95;;
5754;SDS011;2902;42.130;24.732;2023-08-31T10:02:52;6.65;;;2.25;;
5754;SDS011;2902;42.130;24.732;2023-08-31T10:05:19;56.45;;;5.15;;
5754;SDS011;2902;42.130;24.732;2023-08-31T10:07:47;3.17;;;2.63;;
5754;SDS011;2902;42.130;24.732;2023-08-31T10:10:15;4.55;;;2.17;;
5754;SDS011;2902;42.130;24.732;2023-08-31T10:12:43;3.08;;;2.15;;
5754;SDS011;2902;42.130;24.732;2023-08-31T10:15:11;8.25;;;2.25;;
5754;SDS011;2902;42.130;24.732;2023-08-31T10:17:39;8.93;;;2.45;;
5754;SDS011;2902;42.130;24.732;2023-08-31T10:20:06;9.38;;;2.30;;
5754;SDS011;2902;42.130;24.732;2023-08-31T10:22:36;15.35;;;3.30;;
5754;SDS011;2902;42.130;24.732;2023-08-31T10:25:04;11.15;;;2.50;;
5754;SDS011;2902;42.130;24.732;2023-08-31T10:27:35;5.28;;;2.13;;
5754;SDS011;2902;42.130;24.732;2023-08-31T10:30:14;2.38;;;2.10;;
5754;SDS011;2902;42.130;24.732;2023-08-31T10:35:50;3.33;;;2.20;;
5754;SDS011;2902;42.130;24.732;2023-08-31T10:38:23;6.57;;;2.03;;
5754;SDS011;2902;42.130;24.732;2023-08-31T10:41:01;2.60;;;2.03;;
5754;SDS011;2902;42.130;24.732;2023-08-31T10:43:52;4.93;;;2.40;;
5754;SDS011;2902;42.130;24.732;2023-08-31T10:46:27;3.80;;;1.88;;
5754;SDS011;2902;42.130;24.732;2023-08-31T10:48:55;3.58;;;1.90;;
5754;SDS011;2902;42.130;24.732;2023-08-31T10:51:24;3.22;;;2.08;;
5754;SDS011;2902;42.130;24.732;2023-08-31T10:53:51;3.17;;;2.10;;
5754;SDS011;2902;42.130;24.732;2023-08-31T10:56:29;2.95;;;2.10;;
5754;SDS011;2902;42.130;24.732;2023-08-31T10:58:57;4.00;;;1.83;;
5754;SDS011;2902;42.130;24.732;2023-08-31T11:01:52;4.40;;;2.63;;
5754;SDS011;2902;42.130;24.732;2023-08-31T11:04:20;2.30;;;1.73;;
5754;SDS011;2902;42.130;24.732;2023-08-31T11:06:47;1.98;;;1.80;;
5754;SDS011;2902;42.130;24.732;2023-08-31T11:09:18;5.05;;;2.25;;
5754;SDS011;2902;42.130;24.732;2023-08-31T11:11:46;15.98;;;4.50;;
5754;SDS011;2902;42.130;24.732;2023-08-31T11:14:13;5.13;;;2.03;;
5754;SDS011;2902;42.130;24.732;2023-08-31T11:16:40;5.18;;;2.35;;
5754;SDS011;2902;42.130;24.732;2023-08-31T11:19:09;8.65;;;2.47;;
5754;SDS011;2902;42.130;24.732;2023-08-31T11:21:36;4.35;;;2.17;;
5754;SDS011;2902;42.130;24.732;2023-08-31T11:24:04;3.65;;;2.33;;
5754;SDS011;2902;42.130;24.732;2023-08-31T11:26:31;4.25;;;2.35;;
5754;SDS011;2902;42.130;24.732;2023-08-31T11:28:58;2.45;;;2.25;;
5754;SDS011;2902;42.130;24.732;2023-08-31T11:31:25;6.05;;;1.95;;
5754;SDS011;2902;42.130;24.732;2023-08-31T11:33:53;2.25;;;1.83;;
5754;SDS011;2902;42.130;24.732;2023-08-31T11:36:22;2.85;;;2.15;;
5754;SDS011;2902;42.130;24.732;2023-08-31T11:38:50;2.20;;;2.10;;
5754;SDS011;2902;42.130;24.732;2023-08-31T11:41:17;12.30;;;2.63;;
5754;SDS011;2902;42.130;24.732;2023-08-31T11:43:44;68.82;;;6.88;;
5754;SDS011;2902;42.130;24.732;2023-08-31T11:46:10;4.22;;;2.13;;
5754;SDS011;2902;42.130;24.732;2023-08-31T11:48:37;8.73;;;3.33;;
5754;SDS011;2902;42.130;24.732;2023-08-31T11:51:05;3.75;;;2.20;;
5754;SDS011;2902;42.130;24.732;2023-08-31T11:53:34;2.33;;;2.10;;
5754;SDS011;2902;42.130;24.732;2023-08-31T11:56:01;4.82;;;2.80;;
5754;SDS011;2902;42.130;24.732;2023-08-31T11:58:28;4.50;;;2.28;;
5754;SDS011;2902;42.130;24.732;2023-08-31T12:00:56;4.57;;;2.30;;
5754;SDS011;2902;42.130;24.732;2023-08-31T12:03:24;6.32;;;2.80;;
5754;SDS011;2902;42.130;24.732;2023-08-31T12:05:51;7.57;;;2.83;;
5754;SDS011;2902;42.130;24.732;2023-08-31T12:08:23;3.65;;;2.67;;
5754;SDS011;2902;42.130;24.732;2023-08-31T12:10:51;4.30;;;2.85;;
5754;SDS011;2902;42.130;24.732;2023-08-31T12:13:18;8.77;;;3.00;;
5754;SDS011;2902;42.130;24.732;2023-08-31T12:15:45;28.75;;;4.90;;
5754;SDS011;2902;42.130;24.732;2023-08-31T12:18:12;9.80;;;2.58;;
5754;SDS011;2902;42.130;24.732;2023-08-31T12:20:43;4.50;;;2.33;;
5754;SDS011;2902;42.130;24.732;2023-08-31T12:23:11;3.58;;;2.28;;
5754;SDS011;2902;42.130;24.732;2023-08-31T12:25:44;2.88;;;2.28;;
5754;SDS011;2902;42.130;24.732;2023-08-31T12:28:13;4.63;;;2.50;;
5754;SDS011;2902;42.130;24.732;2023-08-31T12:30:41;4.20;;;2.40;;
5754;SDS011;2902;42.130;24.732;2023-08-31T12:33:09;17.70;;;3.47;;
5754;SDS011;2902;42.130;24.732;2023-08-31T12:35:36;9.82;;;3.25;;
5754;SDS011;2902;42.130;24.732;2023-08-31T12:38:03;2.83;;;2.33;;
5754;SDS011;2902;42.130;24.732;2023-08-31T12:40:30;3.63;;;2.22;;
5754;SDS011;2902;42.130;24.732;2023-08-31T12:42:57;3.85;;;2.50;;
5754;SDS011;2902;42.130;24.732;2023-08-31T12:45:25;3.72;;;2.15;;
5754;SDS011;2902;42.130;24.732;2023-08-31T12:47:51;4.32;;;2.05;;
5754;SDS011;2902;42.130;24.732;2023-08-31T12:50:18;2.53;;;2.13;;
5754;SDS011;2902;42.130;24.732;2023-08-31T12:52:45;7.10;;;2.63;;
5754;SDS011;2902;42.130;24.732;2023-08-31T12:55:12;2.97;;;2.40;;
5754;SDS011;2902;42.130;24.732;2023-08-31T12:57:39;2.63;;;2.42;;
5754;SDS011;2902;42.130;24.732;2023-08-31T13:00:07;2.70;;;2.50;;
5754;SDS011;2902;42.130;24.732;2023-08-31T13:02:38;2.38;;;2.28;;
5754;SDS011;2902;42.130;24.732;2023-08-31T13:05:05;2.85;;;2.55;;
5754;SDS011;2902;42.130;24.732;2023-08-31T13:07:33;3.33;;;2.63;;
5754;SDS011;2902;42.130;24.732;2023-08-31T13:10:00;3.42;;;2.67;;
5754;SDS011;2902;42.130;24.732;2023-08-31T13:12:29;2.85;;;2.50;;
5754;SDS011;2902;42.130;24.732;2023-08-31T13:14:55;5.20;;;2.30;;
5754;SDS011;2902;42.130;24.732;2023-08-31T13:17:22;2.33;;;2.17;;
5754;SDS011;2902;42.130;24.732;2023-08-31T13:19:53;3.28;;;2.17;;
5754;SDS011;2902;42.130;24.732;2023-08-31T13:22:19;3.10;;;2.80;;
5754;SDS011;2902;42.130;24.732;2023-08-31T13:24:47;4.22;;;2.33;;
5754;SDS011;2902;42.130;24.732;2023-08-31T13:27:14;3.13;;;2.45;;
5754;SDS011;2902;42.130;24.732;2023-08-31T13:29:41;4.65;;;2.60;;
5754;SDS011;2902;42.130;24.732;2023-08-31T13:32:07;5.88;;;2.95;;
5754;SDS011;2902;42.130;24.732;2023-08-31T13:34:35;5.18;;;2.70;;
5754;SDS011;2902;42.130;24.732;2023-08-31T13:37:04;4.07;;;2.88;;
5754;SDS011;2902;42.130;24.732;2023-08-31T13:39:33;5.93;;;3.00;;
5754;SDS011;2902;42.130;24.732;2023-08-31T13:42:01;4.10;;;2.70;;
5754;SDS011;2902;42.130;24.732;2023-08-31T13:44:29;2.60;;;2.40;;
5754;SDS011;2902;42.130;24.732;2023-08-31T13:46:56;6.28;;;2.88;;
5754;SDS011;2902;42.130;24.732;2023-08-31T13:49:22;5.28;;;2.60;;
5754;SDS011;2902;42.130;24.732;2023-08-31T13:51:49;9.75;;;2.95;;
5754;SDS011;2902;42.130;24.732;2023-08-31T13:54:18;4.43;;;2.95;;
5754;SDS011;2902;42.130;24.732;2023-08-31T13:56:44;9.02;;;3.35;;
5754;SDS011;2902;42.130;24.732;2023-08-31T13:59:11;3.95;;;2.63;;
5754;SDS011;2902;42.130;24.732;2023-08-31T14:01:38;4.25;;;2.88;;
5754;SDS011;2902;42.130;24.732;2023-08-31T14:04:05;3.22;;;2.75;;
5754;SDS011;2902;42.130;24.732;2023-08-31T14:06:32;4.88;;;2.85;;
5754;SDS011;2902;42.130;24.732;2023-08-31T14:08:59;3.58;;;3.15;;
5754;SDS011;2902;42.130;24.732;2023-08-31T14:11:27;6.43;;;2.75;;
5754;SDS011;2902;42.130;24.732;2023-08-31T14:14:00;5.93;;;2.88;;
5754;SDS011;2902;42.130;24.732;2023-08-31T14:16:29;5.35;;;2.63;;
5754;SDS011;2902;42.130;24.732;2023-08-31T14:18:55;3.17;;;2.88;;
5754;SDS011;2902;42.130;24.732;2023-08-31T14:21:22;8.50;;;2.85;;
5754;SDS011;2902;42.130;24.732;2023-08-31T14:23:49;6.72;;;3.30;;
5754;SDS011;2902;42.130;24.732;2023-08-31T14:26:20;3.25;;;2.70;;
5754;SDS011;2902;42.130;24.732;2023-08-31T14:28:48;2.42;;;2.22;;
5754;SDS011;2902;42.130;24.732;2023-08-31T14:31:15;9.38;;;2.80;;
5754;SDS011;2902;42.130;24.732;2023-08-31T14:33:42;2.78;;;2.58;;
5754;SDS011;2902;42.130;24.732;2023-08-31T14:36:08;7.00;;;3.28;;
5754;SDS011;2902;42.130;24.732;2023-08-31T14:38:35;3.50;;;3.13;;
5754;SDS011;2902;42.130;24.732;2023-08-31T14:41:02;4.72;;;3.22;;
5754;SDS011;2902;42.130;24.732;2023-08-31T14:43:31;5.28;;;3.28;;
5754;SDS011;2902;42.130;24.732;2023-08-31T14:45:59;6.78;;;3.25;;
5754;SDS011;2902;42.130;24.732;2023-08-31T14:48:26;7.43;;;2.90;;
5754;SDS011;2902;42.130;24.732;2023-08-31T14:50:53;6.40;;;3.00;;
5754;SDS011;2902;42.130;24.732;2023-08-31T14:53:20;5.80;;;3.03;;
5754;SDS011;2902;42.130;24.732;2023-08-31T14:55:48;6.55;;;3.92;;
5754;SDS011;2902;42.130;24.732;2023-08-31T14:58:15;5.78;;;3.92;;
5754;SDS011;2902;42.130;24.732;2023-08-31T15:00:42;8.13;;;4.30;;
5754;SDS011;2902;42.130;24.732;2023-08-31T15:03:11;5.50;;;3.63;;
5754;SDS011;2902;42.130;24.732;2023-08-31T15:05:38;3.58;;;3.22;;
5754;SDS011;2902;42.130;24.732;2023-08-31T15:08:06;4.43;;;3.70;;
5754;SDS011;2902;42.130;24.732;2023-08-31T15:10:33;10.23;;;3.80;;
5754;SDS011;2902;42.130;24.732;2023-08-31T15:13:00;5.50;;;3.90;;
5754;SDS011;2902;42.130;24.732;2023-08-31T15:15:27;12.03;;;3.63;;
5754;SDS011;2902;42.130;24.732;2023-08-31T15:17:53;7.63;;;3.47;;